Mission Hill, Massachusetts
Current Conditions -  °F | °C
As of 7:54 PM on Saturday 22 Nov 2014 (Local Time) from KBOS Reporting Station
Scattered Clouds Scattered Clouds  
Wind Chill: 30°   Ceiling: Unl
Heat Index: 40°   Visibility: 10mi
Dew Point: 19°   Wind: 22mph
Humidity: 43%   Direction: 220°SW
Pressure: 30.08"   Gusts: 32mph
Location:  42.3325°N, 71.0965°W
Report Text: KBOS 230054Z 22019G28KT 10SM SCT050 SCT065 04/M07 A3008 RMK AO2 PK WND 23028/0046 SLP186 T00441072
Loading
Personal Weather Stations






























Interactive Weather Map New forecast layout! Learn more

10-Day Weather Forecast

Advertisements
Track Severe Weather on mobile